sensor_id;sensor_type;location;lat;lon;timestamp;pressure;altitude;pressure_sealevel;temperature;humidity
59106;BME280;44891;50.204;8.132;2023-12-22T00:01:14;96810.63;;;4.20;100.00
59106;BME280;44891;50.204;8.132;2023-12-22T00:05:17;96827.78;;;4.21;100.00
59106;BME280;44891;50.204;8.132;2023-12-22T00:09:19;96831.28;;;4.27;100.00
59106;BME280;44891;50.204;8.132;2023-12-22T00:13:20;96830.91;;;4.35;100.00
59106;BME280;44891;50.204;8.132;2023-12-22T00:17:24;96816.84;;;4.19;100.00
59106;BME280;44891;50.204;8.132;2023-12-22T00:21:25;96825.50;;;4.36;100.00
59106;BME280;44891;50.204;8.132;2023-12-22T00:25:28;96824.75;;;4.53;100.00
59106;BME280;44891;50.204;8.132;2023-12-22T00:29:30;96824.19;;;4.51;100.00
59106;BME280;44891;50.204;8.132;2023-12-22T00:33:33;96834.13;;;4.54;100.00
59106;BME280;44891;50.204;8.132;2023-12-22T00:37:35;96837.34;;;4.44;100.00
59106;BME280;44891;50.204;8.132;2023-12-22T00:41:37;96821.97;;;4.43;100.00
59106;BME280;44891;50.204;8.132;2023-12-22T00:45:39;96815.19;;;4.42;100.00
59106;BME280;44891;50.204;8.132;2023-12-22T00:49:42;96808.31;;;4.35;100.00
59106;BME280;44891;50.204;8.132;2023-12-22T00:53:43;96821.97;;;4.43;100.00
59106;BME280;44891;50.204;8.132;2023-12-22T00:57:45;96823.94;;;4.52;100.00
59106;BME280;44891;50.204;8.132;2023-12-22T01:01:47;96825.09;;;4.73;100.00
59106;BME280;44891;50.204;8.132;2023-12-22T01:05:50;96834.41;;;4.86;100.00
59106;BME280;44891;50.204;8.132;2023-12-22T01:09:52;96844.16;;;4.79;100.00
59106;BME280;44891;50.204;8.132;2023-12-22T01:13:54;96849.75;;;4.71;100.00
59106;BME280;44891;50.204;8.132;2023-12-22T01:17:56;96874.22;;;4.86;100.00
59106;BME280;44891;50.204;8.132;2023-12-22T01:21:59;96901.34;;;4.90;100.00
59106;BME280;44891;50.204;8.132;2023-12-22T01:26:01;96910.53;;;4.53;100.00
59106;BME280;44891;50.204;8.132;2023-12-22T01:30:03;96924.91;;;4.44;100.00
59106;BME280;44891;50.204;8.132;2023-12-22T01:34:05;96922.72;;;4.52;100.00
59106;BME280;44891;50.204;8.132;2023-12-22T01:38:08;96921.78;;;4.30;100.00
59106;BME280;44891;50.204;8.132;2023-12-22T01:42:10;96954.34;;;3.86;100.00
59106;BME280;44891;50.204;8.132;2023-12-22T01:46:11;96937.38;;;4.18;100.00
59106;BME280;44891;50.204;8.132;2023-12-22T01:50:14;96916.97;;;3.87;100.00
59106;BME280;44891;50.204;8.132;2023-12-22T01:54:18;96917.75;;;3.87;100.00
59106;BME280;44891;50.204;8.132;2023-12-22T01:58:20;96917.75;;;3.99;100.00
59106;BME280;44891;50.204;8.132;2023-12-22T02:02:23;96929.28;;;3.79;100.00
59106;BME280;44891;50.204;8.132;2023-12-22T02:06:25;96921.25;;;4.04;100.00
59106;BME280;44891;50.204;8.132;2023-12-22T02:10:29;96909.63;;;4.07;100.00
59106;BME280;44891;50.204;8.132;2023-12-22T02:14:30;96913.66;;;4.15;100.00
59106;BME280;44891;50.204;8.132;2023-12-22T02:18:33;96912.31;;;4.24;100.00
59106;BME280;44891;50.204;8.132;2023-12-22T02:22:36;96918.72;;;4.21;100.00
59106;BME280;44891;50.204;8.132;2023-12-22T02:26:40;96903.50;;;4.25;100.00
59106;BME280;44891;50.204;8.132;2023-12-22T02:30:47;96914.00;;;4.30;100.00
59106;BME280;44891;50.204;8.132;2023-12-22T02:34:54;96909.09;;;4.33;100.00
59106;BME280;44891;50.204;8.132;2023-12-22T02:38:59;96890.25;;;4.26;100.00
59106;BME280;44891;50.204;8.132;2023-12-22T02:43:02;96907.78;;;4.31;100.00
59106;BME280;44891;50.204;8.132;2023-12-22T02:47:04;96907.50;;;4.44;100.00
59106;BME280;44891;50.204;8.132;2023-12-22T02:51:06;96896.13;;;4.33;100.00
59106;BME280;44891;50.204;8.132;2023-12-22T02:55:09;96902.63;;;4.48;100.00
59106;BME280;44891;50.204;8.132;2023-12-22T02:59:11;96905.16;;;4.43;100.00
59106;BME280;44891;50.204;8.132;2023-12-22T03:03:13;96901.72;;;4.42;100.00
59106;BME280;44891;50.204;8.132;2023-12-22T03:07:15;96887.50;;;4.45;100.00
59106;BME280;44891;50.204;8.132;2023-12-22T03:11:18;96881.28;;;4.46;100.00
59106;BME280;44891;50.204;8.132;2023-12-22T03:15:20;96875.66;;;4.66;100.00
59106;BME280;44891;50.204;8.132;2023-12-22T03:19:22;96876.28;;;4.56;100.00
59106;BME280;44891;50.204;8.132;2023-12-22T03:23:24;96896.41;;;4.49;100.00
59106;BME280;44891;50.204;8.132;2023-12-22T03:27:27;96900.22;;;4.29;100.00
59106;BME280;44891;50.204;8.132;2023-12-22T03:31:29;96901.88;;;4.35;100.00
59106;BME280;44891;50.204;8.132;2023-12-22T03:35:30;96903.19;;;4.50;100.00
59106;BME280;44891;50.204;8.132;2023-12-22T03:39:32;96889.81;;;4.58;100.00
59106;BME280;44891;50.204;8.132;2023-12-22T03:43:35;96881.47;;;4.56;100.00
59106;BME280;44891;50.204;8.132;2023-12-22T03:47:37;96878.75;;;4.79;100.00
59106;BME280;44891;50.204;8.132;2023-12-22T03:51:39;96868.75;;;4.71;100.00
59106;BME280;44891;50.204;8.132;2023-12-22T03:55:42;96857.56;;;4.71;100.00
59106;BME280;44891;50.204;8.132;2023-12-22T03:59:45;96849.47;;;4.84;100.00
59106;BME280;44891;50.204;8.132;2023-12-22T04:03:47;96865.53;;;4.81;100.00
59106;BME280;44891;50.204;8.132;2023-12-22T04:07:48;96885.50;;;4.92;100.00
59106;BME280;44891;50.204;8.132;2023-12-22T04:11:50;96902.84;;;5.03;100.00
59106;BME280;44891;50.204;8.132;2023-12-22T04:15:53;96883.56;;;5.16;100.00
59106;BME280;44891;50.204;8.132;2023-12-22T04:19:55;96895.13;;;5.25;100.00
59106;BME280;44891;50.204;8.132;2023-12-22T04:23:57;96901.19;;;5.14;100.00
59106;BME280;44891;50.204;8.132;2023-12-22T04:27:59;96902.56;;;5.16;100.00
59106;BME280;44891;50.204;8.132;2023-12-22T04:32:02;96894.44;;;5.30;100.00
59106;BME280;44891;50.204;8.132;2023-12-22T04:36:04;96910.13;;;5.18;100.00
59106;BME280;44891;50.204;8.132;2023-12-22T04:40:06;96896.63;;;5.21;100.00
59106;BME280;44891;50.204;8.132;2023-12-22T04:44:08;96907.84;;;5.22;100.00
59106;BME280;44891;50.204;8.132;2023-12-22T04:48:11;96911.53;;;5.26;100.00
59106;BME280;44891;50.204;8.132;2023-12-22T04:52:13;96912.97;;;5.33;100.00
59106;BME280;44891;50.204;8.132;2023-12-22T04:56:15;96916.59;;;5.15;100.00
59106;BME280;44891;50.204;8.132;2023-12-22T05:00:17;96914.22;;;5.14;100.00
59106;BME280;44891;50.204;8.132;2023-12-22T05:04:20;96909.00;;;5.14;100.00
59106;BME280;44891;50.204;8.132;2023-12-22T05:08:22;96936.00;;;5.25;100.00
59106;BME280;44891;50.204;8.132;2023-12-22T05:12:24;96920.06;;;5.21;100.00
59106;BME280;44891;50.204;8.132;2023-12-22T05:16:26;96936.84;;;5.13;100.00
59106;BME280;44891;50.204;8.132;2023-12-22T05:20:31;96926.28;;;5.20;100.00
59106;BME280;44891;50.204;8.132;2023-12-22T05:24:33;96923.72;;;5.08;100.00
59106;BME280;44891;50.204;8.132;2023-12-22T05:28:35;96921.88;;;5.21;100.00
59106;BME280;44891;50.204;8.132;2023-12-22T05:32:36;96935.25;;;5.12;100.00
59106;BME280;44891;50.204;8.132;2023-12-22T05:36:40;96917.69;;;5.03;100.00
59106;BME280;44891;50.204;8.132;2023-12-22T05:40:41;96919.41;;;5.14;100.00
59106;BME280;44891;50.204;8.132;2023-12-22T05:44:43;96912.19;;;5.16;100.00
59106;BME280;44891;50.204;8.132;2023-12-22T05:48:47;96911.00;;;5.24;100.00
59106;BME280;44891;50.204;8.132;2023-12-22T05:52:50;96934.38;;;5.07;100.00
59106;BME280;44891;50.204;8.132;2023-12-22T05:56:51;96936.53;;;5.27;100.00
59106;BME280;44891;50.204;8.132;2023-12-22T06:00:53;96932.06;;;5.39;100.00
59106;BME280;44891;50.204;8.132;2023-12-22T06:04:55;96934.50;;;5.29;100.00
59106;BME280;44891;50.204;8.132;2023-12-22T06:08:58;96958.34;;;5.37;100.00
59106;BME280;44891;50.204;8.132;2023-12-22T06:13:00;96937.50;;;5.37;100.00
59106;BME280;44891;50.204;8.132;2023-12-22T06:17:05;96952.72;;;5.45;100.00
59106;BME280;44891;50.204;8.132;2023-12-22T06:21:07;96960.09;;;5.49;100.00
59106;BME280;44891;50.204;8.132;2023-12-22T06:25:10;96954.84;;;5.32;100.00
59106;BME280;44891;50.204;8.132;2023-12-22T06:29:12;96945.16;;;5.44;100.00
59106;BME280;44891;50.204;8.132;2023-12-22T06:33:14;96975.47;;;5.50;99.14
59106;BME280;44891;50.204;8.132;2023-12-22T06:37:16;96974.34;;;5.46;99.04
59106;BME280;44891;50.204;8.132;2023-12-22T06:41:20;96967.75;;;5.55;97.00
59106;BME280;44891;50.204;8.132;2023-12-22T06:45:23;96979.31;;;5.47;97.64
59106;BME280;44891;50.204;8.132;2023-12-22T06:49:25;96973.09;;;5.65;94.13
59106;BME280;44891;50.204;8.132;2023-12-22T06:53:26;96982.56;;;5.71;93.31
59106;BME280;44891;50.204;8.132;2023-12-22T06:57:30;96976.66;;;5.76;93.46
59106;BME280;44891;50.204;8.132;2023-12-22T07:01:32;96977.81;;;5.85;92.88
59106;BME280;44891;50.204;8.132;2023-12-22T07:05:34;96971.59;;;5.86;92.95
59106;BME280;44891;50.204;8.132;2023-12-22T07:09:39;96988.13;;;5.92;93.44
59106;BME280;44891;50.204;8.132;2023-12-22T07:13:42;96996.72;;;5.92;94.03
59106;BME280;44891;50.204;8.132;2023-12-22T07:17:44;97003.13;;;6.02;93.59
59106;BME280;44891;50.204;8.132;2023-12-22T07:21:46;97003.84;;;5.97;95.31
59106;BME280;44891;50.204;8.132;2023-12-22T07:25:48;97031.50;;;5.86;98.68
59106;BME280;44891;50.204;8.132;2023-12-22T07:29:51;97041.88;;;5.81;100.00
59106;BME280;44891;50.204;8.132;2023-12-22T07:33:52;97044.66;;;5.91;99.42
59106;BME280;44891;50.204;8.132;2023-12-22T07:37:54;97045.53;;;5.97;99.28
59106;BME280;44891;50.204;8.132;2023-12-22T07:41:56;97052.56;;;5.96;99.07
59106;BME280;44891;50.204;8.132;2023-12-22T07:45:59;97050.56;;;6.04;98.29
59106;BME280;44891;50.204;8.132;2023-12-22T07:50:01;97077.19;;;6.06;97.71
59106;BME280;44891;50.204;8.132;2023-12-22T07:54:03;97071.44;;;6.04;98.32
59106;BME280;44891;50.204;8.132;2023-12-22T07:58:05;97072.16;;;5.87;97.01
59106;BME280;44891;50.204;8.132;2023-12-22T08:02:09;97071.47;;;5.75;97.09
59106;BME280;44891;50.204;8.132;2023-12-22T08:06:10;97055.28;;;5.44;94.51
59106;BME280;44891;50.204;8.132;2023-12-22T08:10:14;97068.78;;;5.41;94.53
59106;BME280;44891;50.204;8.132;2023-12-22T08:14:17;97090.53;;;5.35;96.93
59106;BME280;44891;50.204;8.132;2023-12-22T08:18:20;97109.59;;;5.12;100.00
59106;BME280;44891;50.204;8.132;2023-12-22T08:22:22;97115.28;;;5.09;100.00
59106;BME280;44891;50.204;8.132;2023-12-22T08:26:24;97094.91;;;5.06;100.00
59106;BME280;44891;50.204;8.132;2023-12-22T08:30:25;97086.59;;;5.21;100.00
59106;BME280;44891;50.204;8.132;2023-12-22T08:34:29;97074.69;;;4.97;100.00
59106;BME280;44891;50.204;8.132;2023-12-22T08:38:30;97081.00;;;5.01;100.00
59106;BME280;44891;50.204;8.132;2023-12-22T08:42:32;97078.63;;;5.11;100.00
59106;BME280;44891;50.204;8.132;2023-12-22T08:46:34;97076.59;;;5.01;100.00
59106;BME280;44891;50.204;8.132;2023-12-22T08:50:37;97081.91;;;4.95;100.00
59106;BME280;44891;50.204;8.132;2023-12-22T08:54:39;97079.66;;;5.10;100.00
59106;BME280;44891;50.204;8.132;2023-12-22T08:58:41;97074.09;;;5.06;100.00
59106;BME280;44891;50.204;8.132;2023-12-22T09:02:43;97080.22;;;5.00;100.00
59106;BME280;44891;50.204;8.132;2023-12-22T09:06:46;97088.38;;;5.04;100.00
59106;BME280;44891;50.204;8.132;2023-12-22T09:10:48;97088.47;;;5.09;100.00
59106;BME280;44891;50.204;8.132;2023-12-22T09:14:50;97089.56;;;5.25;100.00
59106;BME280;44891;50.204;8.132;2023-12-22T09:18:52;97082.63;;;5.30;100.00
59106;BME280;44891;50.204;8.132;2023-12-22T09:22:55;97091.97;;;5.43;100.00
59106;BME280;44891;50.204;8.132;2023-12-22T09:26:57;97037.34;;;5.31;100.00
59106;BME280;44891;50.204;8.132;2023-12-22T09:31:03;97091.41;;;5.69;100.00
59106;BME280;44891;50.204;8.132;2023-12-22T09:35:06;97092.16;;;5.82;100.00
59106;BME280;44891;50.204;8.132;2023-12-22T09:39:09;97100.38;;;5.90;100.00
59106;BME280;44891;50.204;8.132;2023-12-22T09:43:16;97091.44;;;5.86;100.00
59106;BME280;44891;50.204;8.132;2023-12-22T09:47:20;97086.28;;;6.03;100.00
59106;BME280;44891;50.204;8.132;2023-12-22T09:51:22;97075.44;;;6.11;100.00
59106;BME280;44891;50.204;8.132;2023-12-22T09:55:26;97077.19;;;6.06;100.00
59106;BME280;44891;50.204;8.132;2023-12-22T09:59:28;97062.88;;;6.25;100.00
59106;BME280;44891;50.204;8.132;2023-12-22T10:03:30;97066.53;;;6.24;100.00
59106;BME280;44891;50.204;8.132;2023-12-22T10:07:34;97056.63;;;6.26;100.00
59106;BME280;44891;50.204;8.132;2023-12-22T10:11:38;97041.88;;;6.32;100.00
59106;BME280;44891;50.204;8.132;2023-12-22T10:15:41;97044.47;;;6.32;100.00
59106;BME280;44891;50.204;8.132;2023-12-22T10:19:43;97039.00;;;6.33;100.00
59106;BME280;44891;50.204;8.132;2023-12-22T10:23:45;97029.53;;;6.44;100.00
59106;BME280;44891;50.204;8.132;2023-12-22T10:27:48;97015.19;;;6.46;100.00
59106;BME280;44891;50.204;8.132;2023-12-22T10:31:52;97008.63;;;6.61;100.00
59106;BME280;44891;50.204;8.132;2023-12-22T10:35:54;97009.47;;;6.66;100.00
59106;BME280;44891;50.204;8.132;2023-12-22T10:39:56;97004.03;;;6.68;100.00
59106;BME280;44891;50.204;8.132;2023-12-22T10:43:59;96994.19;;;6.75;100.00
59106;BME280;44891;50.204;8.132;2023-12-22T10:48:01;96972.81;;;6.78;100.00
59106;BME280;44891;50.204;8.132;2023-12-22T10:52:04;96971.66;;;6.91;100.00
59106;BME280;44891;50.204;8.132;2023-12-22T10:56:06;96977.91;;;6.90;100.00
59106;BME280;44891;50.204;8.132;2023-12-22T11:00:10;96970.69;;;6.97;100.00
59106;BME280;44891;50.204;8.132;2023-12-22T11:04:13;96964.63;;;6.91;100.00
59106;BME280;44891;50.204;8.132;2023-12-22T11:08:16;96911.63;;;6.64;100.00
59106;BME280;44891;50.204;8.132;2023-12-22T11:12:19;96951.81;;;6.90;100.00
59106;BME280;44891;50.204;8.132;2023-12-22T11:16:22;96946.09;;;6.93;100.00
59106;BME280;44891;50.204;8.132;2023-12-22T11:20:25;96943.47;;;6.88;100.00
59106;BME280;44891;50.204;8.132;2023-12-22T11:24:29;96951.31;;;6.93;100.00
59106;BME280;44891;50.204;8.132;2023-12-22T11:28:31;96938.81;;;6.95;100.00
59106;BME280;44891;50.204;8.132;2023-12-22T11:32:35;96933.03;;;6.88;100.00
59106;BME280;44891;50.204;8.132;2023-12-22T11:36:37;96936.09;;;6.85;100.00
59106;BME280;44891;50.204;8.132;2023-12-22T11:40:39;96922.00;;;6.86;100.00
59106;BME280;44891;50.204;8.132;2023-12-22T11:44:41;96906.88;;;6.82;100.00
59106;BME280;44891;50.204;8.132;2023-12-22T11:48:47;96916.31;;;6.89;100.00
59106;BME280;44891;50.204;8.132;2023-12-22T11:52:50;96903.72;;;6.80;100.00
59106;BME280;44891;50.204;8.132;2023-12-22T11:56:52;96899.63;;;6.90;100.00
59106;BME280;44891;50.204;8.132;2023-12-22T12:00:53;96886.31;;;6.91;100.00
59106;BME280;44891;50.204;8.132;2023-12-22T12:04:57;96883.47;;;6.93;100.00
59106;BME280;44891;50.204;8.132;2023-12-22T12:08:59;96879.09;;;6.98;100.00
59106;BME280;44891;50.204;8.132;2023-12-22T12:13:04;96887.47;;;7.00;100.00
59106;BME280;44891;50.204;8.132;2023-12-22T12:17:06;96887.09;;;7.19;100.00
59106;BME280;44891;50.204;8.132;2023-12-22T12:21:10;96879.84;;;7.26;100.00
59106;BME280;44891;50.204;8.132;2023-12-22T12:25:12;96877.78;;;7.28;100.00
59106;BME280;44891;50.204;8.132;2023-12-22T12:29:14;96880.38;;;7.28;100.00
59106;BME280;44891;50.204;8.132;2023-12-22T12:33:18;96888.50;;;7.31;100.00
59106;BME280;44891;50.204;8.132;2023-12-22T12:37:21;96894.50;;;7.27;100.00
59106;BME280;44891;50.204;8.132;2023-12-22T12:41:25;96896.22;;;7.16;100.00
59106;BME280;44891;50.204;8.132;2023-12-22T12:45:30;96899.09;;;7.15;100.00
59106;BME280;44891;50.204;8.132;2023-12-22T12:49:32;96890.25;;;7.21;100.00
59106;BME280;44891;50.204;8.132;2023-12-22T12:53:36;96881.97;;;7.29;100.00
59106;BME280;44891;50.204;8.132;2023-12-22T12:57:38;96880.38;;;7.28;100.00
59106;BME280;44891;50.204;8.132;2023-12-22T13:01:40;96899.72;;;7.27;100.00
59106;BME280;44891;50.204;8.132;2023-12-22T13:05:42;96903.88;;;7.28;100.00
59106;BME280;44891;50.204;8.132;2023-12-22T13:09:45;96907.28;;;7.28;100.00
59106;BME280;44891;50.204;8.132;2023-12-22T13:13:47;96902.06;;;7.28;100.00
59106;BME280;44891;50.204;8.132;2023-12-22T13:17:50;96907.88;;;7.35;100.00
59106;BME280;44891;50.204;8.132;2023-12-22T13:21:52;96917.44;;;7.25;100.00
59106;BME280;44891;50.204;8.132;2023-12-22T13:25:56;96904.47;;;7.35;100.00
59106;BME280;44891;50.204;8.132;2023-12-22T13:29:58;96909.53;;;7.47;100.00
59106;BME280;44891;50.204;8.132;2023-12-22T13:34:00;96910.31;;;7.47;100.00
59106;BME280;44891;50.204;8.132;2023-12-22T13:38:02;96919.69;;;7.43;100.00
59106;BME280;44891;50.204;8.132;2023-12-22T13:42:14;96912.16;;;7.52;100.00
59106;BME280;44891;50.204;8.132;2023-12-22T13:46:17;96917.69;;;7.55;100.00
59106;BME280;44891;50.204;8.132;2023-12-22T13:50:19;96906.28;;;7.67;100.00
59106;BME280;44891;50.204;8.132;2023-12-22T13:54:23;96908.94;;;7.77;100.00
59106;BME280;44891;50.204;8.132;2023-12-22T13:58:34;96900.09;;;7.83;100.00
59106;BME280;44891;50.204;8.132;2023-12-22T14:02:44;96885.72;;;7.85;100.00
59106;BME280;44891;50.204;8.132;2023-12-22T14:06:46;96877.13;;;7.90;100.00
59106;BME280;44891;50.204;8.132;2023-12-22T14:10:48;96875.03;;;7.92;100.00
59106;BME280;44891;50.204;8.132;2023-12-22T14:14:51;96867.50;;;7.96;100.00
59106;BME280;44891;50.204;8.132;2023-12-22T14:18:53;96864.13;;;8.00;100.00
59106;BME280;44891;50.204;8.132;2023-12-22T14:22:56;96873.53;;;8.01;100.00
59106;BME280;44891;50.204;8.132;2023-12-22T14:26:57;96881.41;;;8.06;100.00
59106;BME280;44891;50.204;8.132;2023-12-22T14:31:01;96886.13;;;8.09;100.00
59106;BME280;44891;50.204;8.132;2023-12-22T14:35:03;96892.88;;;8.05;100.00
59106;BME280;44891;50.204;8.132;2023-12-22T14:39:05;96900.97;;;7.99;100.00
59106;BME280;44891;50.204;8.132;2023-12-22T14:43:07;96898.16;;;8.10;100.00
59106;BME280;44891;50.204;8.132;2023-12-22T14:47:10;96906.03;;;8.15;100.00
59106;BME280;44891;50.204;8.132;2023-12-22T14:51:12;96908.13;;;8.18;100.00
59106;BME280;44891;50.204;8.132;2023-12-22T14:55:13;96904.50;;;8.20;100.00
59106;BME280;44891;50.204;8.132;2023-12-22T14:59:17;96907.63;;;8.22;100.00
59106;BME280;44891;50.204;8.132;2023-12-22T15:03:20;96908.44;;;8.27;100.00
59106;BME280;44891;50.204;8.132;2023-12-22T15:07:22;96909.75;;;8.30;100.00
59106;BME280;44891;50.204;8.132;2023-12-22T15:11:24;96908.19;;;8.29;100.00
59106;BME280;44891;50.204;8.132;2023-12-22T15:15:26;96919.91;;;8.21;100.00
59106;BME280;44891;50.204;8.132;2023-12-22T15:19:29;96930.63;;;8.25;100.00
59106;BME280;44891;50.204;8.132;2023-12-22T15:23:31;96933.81;;;8.27;100.00
59106;BME280;44891;50.204;8.132;2023-12-22T15:27:32;96927.00;;;8.26;100.00
59106;BME280;44891;50.204;8.132;2023-12-22T15:31:36;96926.50;;;8.29;100.00
59106;BME280;44891;50.204;8.132;2023-12-22T15:35:39;96948.69;;;8.21;100.00
59106;BME280;44891;50.204;8.132;2023-12-22T15:39:41;96942.63;;;8.15;100.00
59106;BME280;44891;50.204;8.132;2023-12-22T15:43:43;96965.13;;;8.16;100.00
59106;BME280;44891;50.204;8.132;2023-12-22T15:47:45;96960.13;;;8.10;100.00
59106;BME280;44891;50.204;8.132;2023-12-22T15:51:48;96946.78;;;8.11;100.00
59106;BME280;44891;50.204;8.132;2023-12-22T15:55:50;96968.00;;;8.15;100.00
59106;BME280;44891;50.204;8.132;2023-12-22T15:59:52;96965.66;;;8.18;100.00
59106;BME280;44891;50.204;8.132;2023-12-22T16:03:54;96956.75;;;8.14;100.00
59106;BME280;44891;50.204;8.132;2023-12-22T16:07:57;96977.47;;;8.26;100.00
59106;BME280;44891;50.204;8.132;2023-12-22T16:12:02;96961.97;;;8.14;100.00
59106;BME280;44891;50.204;8.132;2023-12-22T16:16:04;96984.59;;;7.99;100.00
59106;BME280;44891;50.204;8.132;2023-12-22T16:20:07;96975.97;;;7.93;100.00
59106;BME280;44891;50.204;8.132;2023-12-22T16:24:11;96979.59;;;7.92;100.00
59106;BME280;44891;50.204;8.132;2023-12-22T16:28:13;96986.88;;;7.85;100.00
59106;BME280;44891;50.204;8.132;2023-12-22T16:32:14;96993.09;;;7.79;100.00
59106;BME280;44891;50.204;8.132;2023-12-22T16:36:16;97000.94;;;7.79;100.00
59106;BME280;44891;50.204;8.132;2023-12-22T16:40:19;96995.91;;;7.67;100.00
59106;BME280;44891;50.204;8.132;2023-12-22T16:44:21;97006.16;;;7.79;100.00
59106;BME280;44891;50.204;8.132;2023-12-22T16:48:23;96992.13;;;7.90;100.00
59106;BME280;44891;50.204;8.132;2023-12-22T16:52:25;97004.47;;;7.95;100.00
59106;BME280;44891;50.204;8.132;2023-12-22T16:56:29;97009.94;;;7.93;100.00
59106;BME280;44891;50.204;8.132;2023-12-22T17:00:31;97015.91;;;7.88;100.00
59106;BME280;44891;50.204;8.132;2023-12-22T17:04:32;97021.69;;;7.90;100.00
59106;BME280;44891;50.204;8.132;2023-12-22T17:08:34;97013.78;;;7.85;100.00
59106;BME280;44891;50.204;8.132;2023-12-22T17:12:38;97029.25;;;7.92;100.00
59106;BME280;44891;50.204;8.132;2023-12-22T17:16:39;97026.13;;;7.90;100.00
59106;BME280;44891;50.204;8.132;2023-12-22T17:20:43;97032.22;;;8.01;100.00
59106;BME280;44891;50.204;8.132;2023-12-22T17:24:45;97012.66;;;8.08;100.00
59106;BME280;44891;50.204;8.132;2023-12-22T17:28:48;97020.00;;;8.11;100.00
59106;BME280;44891;50.204;8.132;2023-12-22T17:32:50;97035.63;;;8.01;100.00
59106;BME280;44891;50.204;8.132;2023-12-22T17:36:52;97019.97;;;8.06;100.00
59106;BME280;44891;50.204;8.132;2023-12-22T17:40:54;97037.84;;;8.20;100.00
59106;BME280;44891;50.204;8.132;2023-12-22T17:44:57;97026.31;;;8.15;100.00
59106;BME280;44891;50.204;8.132;2023-12-22T17:48:59;97004.81;;;8.08;100.00
59106;BME280;44891;50.204;8.132;2023-12-22T17:53:00;97013.19;;;8.10;100.00
59106;BME280;44891;50.204;8.132;2023-12-22T17:57:02;97008.97;;;8.04;100.00
59106;BME280;44891;50.204;8.132;2023-12-22T18:01:07;96994.38;;;8.08;100.00
59106;BME280;44891;50.204;8.132;2023-12-22T18:05:09;97040.09;;;8.06;100.00
59106;BME280;44891;50.204;8.132;2023-12-22T18:09:11;97042.53;;;8.17;100.00
59106;BME280;44891;50.204;8.132;2023-12-22T18:13:12;97048.28;;;8.14;100.00
59106;BME280;44891;50.204;8.132;2023-12-22T18:17:16;97065.56;;;8.21;100.00
59106;BME280;44891;50.204;8.132;2023-12-22T18:21:17;97050.72;;;8.26;100.00
59106;BME280;44891;50.204;8.132;2023-12-22T18:25:19;97054.94;;;8.32;99.35
59106;BME280;44891;50.204;8.132;2023-12-22T18:29:21;97064.16;;;8.40;98.49
59106;BME280;44891;50.204;8.132;2023-12-22T18:33:24;97069.25;;;8.25;100.00
59106;BME280;44891;50.204;8.132;2023-12-22T18:37:27;97089.91;;;8.21;100.00
59106;BME280;44891;50.204;8.132;2023-12-22T18:41:29;97099.47;;;8.10;100.00
59106;BME280;44891;50.204;8.132;2023-12-22T18:45:31;97099.88;;;7.97;100.00
59106;BME280;44891;50.204;8.132;2023-12-22T18:49:34;97104.78;;;7.88;100.00
59106;BME280;44891;50.204;8.132;2023-12-22T18:53:36;97099.56;;;7.88;100.00
59106;BME280;44891;50.204;8.132;2023-12-22T18:57:38;97087.28;;;7.89;100.00
59106;BME280;44891;50.204;8.132;2023-12-22T19:01:40;97088.38;;;7.98;100.00
59106;BME280;44891;50.204;8.132;2023-12-22T19:05:43;97101.91;;;7.90;100.00
59106;BME280;44891;50.204;8.132;2023-12-22T19:09:45;97111.50;;;8.06;100.00
59106;BME280;44891;50.204;8.132;2023-12-22T19:13:47;97116.03;;;8.21;100.00
59106;BME280;44891;50.204;8.132;2023-12-22T19:17:48;97106.13;;;8.23;100.00
59106;BME280;44891;50.204;8.132;2023-12-22T19:21:52;97111.34;;;8.23;100.00
59106;BME280;44891;50.204;8.132;2023-12-22T19:25:53;97113.50;;;8.31;98.35
59106;BME280;44891;50.204;8.132;2023-12-22T19:29:55;97122.50;;;8.40;96.56
59106;BME280;44891;50.204;8.132;2023-12-22T19:33:58;97141.47;;;8.26;99.80
59106;BME280;44891;50.204;8.132;2023-12-22T19:38:01;97132.53;;;8.22;100.00
59106;BME280;44891;50.204;8.132;2023-12-22T19:42:03;97135.78;;;8.34;98.20
59106;BME280;44891;50.204;8.132;2023-12-22T19:46:05;97149.94;;;8.38;97.72
59106;BME280;44891;50.204;8.132;2023-12-22T19:50:07;97139.38;;;8.28;98.83
59106;BME280;44891;50.204;8.132;2023-12-22T19:54:10;97089.34;;;7.87;100.00
59106;BME280;44891;50.204;8.132;2023-12-22T19:58:12;97150.53;;;8.18;100.00
59106;BME280;44891;50.204;8.132;2023-12-22T20:02:13;97173.53;;;8.16;100.00
59106;BME280;44891;50.204;8.132;2023-12-22T20:06:15;97161.53;;;8.20;100.00
59106;BME280;44891;50.204;8.132;2023-12-22T20:10:18;97178.28;;;8.19;100.00
59106;BME280;44891;50.204;8.132;2023-12-22T20:14:20;97152.97;;;7.98;100.00
59106;BME280;44891;50.204;8.132;2023-12-22T20:18:22;97167.06;;;8.24;98.98
59106;BME280;44891;50.204;8.132;2023-12-22T20:22:24;97168.41;;;8.26;98.82
59106;BME280;44891;50.204;8.132;2023-12-22T20:26:27;97189.59;;;8.30;97.89
59106;BME280;44891;50.204;8.132;2023-12-22T20:30:29;97200.56;;;8.27;97.97
59106;BME280;44891;50.204;8.132;2023-12-22T20:34:31;97194.84;;;8.30;96.36
59106;BME280;44891;50.204;8.132;2023-12-22T20:38:33;97190.22;;;8.37;94.54
59106;BME280;44891;50.204;8.132;2023-12-22T20:42:36;97206.28;;;8.46;92.77
59106;BME280;44891;50.204;8.132;2023-12-22T20:46:38;97199.75;;;8.48;92.37
59106;BME280;44891;50.204;8.132;2023-12-22T20:50:40;97231.63;;;8.45;92.95
59106;BME280;44891;50.204;8.132;2023-12-22T20:54:42;97244.28;;;8.58;90.28
59106;BME280;44891;50.204;8.132;2023-12-22T20:58:45;97235.66;;;8.58;89.25
59106;BME280;44891;50.204;8.132;2023-12-22T21:02:47;97245.69;;;8.66;87.63
59106;BME280;44891;50.204;8.132;2023-12-22T21:06:48;97239.06;;;8.58;88.75
59106;BME280;44891;50.204;8.132;2023-12-22T21:10:50;97234.88;;;8.57;88.75
59106;BME280;44891;50.204;8.132;2023-12-22T21:14:53;97240.66;;;8.59;88.64
59106;BME280;44891;50.204;8.132;2023-12-22T21:18:55;97245.59;;;8.56;87.84
59106;BME280;44891;50.204;8.132;2023-12-22T21:22:57;97264.16;;;8.54;88.01
59106;BME280;44891;50.204;8.132;2023-12-22T21:26:59;97259.19;;;8.53;87.68